Time;durP1;ratioP1;P1;durP2;ratioP2;P2;SDS_P1;SDS_P2;PMS_P1;PMS_P2;Temp;Humidity;BMP_temperature;BMP_pressure;BME280_temperature;BME280_humidity;BME280_pressure;Samples;Min_cycle;Max_cycle;Signal;HPM_P1;HPM_P2
2023/09/07 00:01:08;;;;;;;7.97;5.70;;;;;;;24.65;53.02;101756.03;2090564;84;51488;-75
2023/09/07 00:04:12;;;;;;;7.00;5.12;;;;;;;24.66;53.00;101750.92;2047442;84;52352;-75
2023/09/07 00:07:15;;;;;;;8.98;5.83;;;;;;;24.65;52.98;101751.98;2052684;85;50670;-74
2023/09/07 00:10:17;;;;;;;9.15;5.65;;;;;;;24.65;52.97;101750.09;2072967;85;51407;-74
2023/09/07 00:13:19;;;;;;;5.90;5.00;;;;;;;24.65;52.94;101756.03;2072597;85;52389;-75
2023/09/07 00:16:22;;;;;;;6.60;5.10;;;;;;;24.64;52.91;101753.84;2122014;83;50376;-74
2023/09/07 00:19:25;;;;;;;7.10;5.50;;;;;;;24.65;52.94;101752.80;2102201;82;50396;-74
2023/09/07 00:25:38;;;;;;;9.20;5.30;;;;;;;24.65;52.84;101751.98;2245457;75;24468;-74
2023/09/07 00:28:40;;;;;;;5.62;5.10;;;;;;;24.65;52.84;101754.16;2248884;77;50358;-76
2023/09/07 00:31:42;;;;;;;7.97;5.12;;;;;;;24.65;52.83;101754.68;2224803;79;50620;-75
2023/09/07 00:34:44;;;;;;;6.45;5.30;;;;;;;24.64;52.91;101759.27;2219488;79;51554;-75
2023/09/07 00:37:46;;;;;;;7.20;5.42;;;;;;;24.64;52.89;101753.84;2217375;79;50740;-75
2023/09/07 00:40:49;;;;;;;7.85;5.53;;;;;;;24.64;52.90;101755.72;2218491;79;52509;-75
2023/09/07 00:43:51;;;;;;;9.95;5.97;;;;;;;24.64;52.93;101751.66;2218256;79;51523;-75
2023/09/07 00:46:53;;;;;;;7.78;5.70;;;;;;;24.63;52.93;101756.73;2218763;79;51435;-75
2023/09/07 00:49:55;;;;;;;7.30;5.08;;;;;;;24.63;53.06;101756.73;2241189;79;51560;-75
2023/09/07 00:52:58;;;;;;;7.33;5.47;;;;;;;24.63;53.07;101751.33;2240791;79;50718;-75
2023/09/07 00:56:00;;;;;;;8.50;5.05;;;;;;;24.62;53.04;101752.37;2267314;78;51192;-75
2023/09/07 00:59:02;;;;;;;6.83;5.40;;;;;;;24.62;53.07;101752.37;2241073;79;50706;-74
2023/09/07 01:02:09;;;;;;;6.87;5.78;;;;;;;24.62;53.05;101755.91;2241103;79;51582;-75
2023/09/07 01:05:09;;;;;;;7.67;5.47;;;;;;;24.62;53.13;101752.37;2240433;79;22293;-75
2023/09/07 01:08:25;;;;;;;6.87;5.25;;;;;;;24.61;53.09;101748.84;2195206;79;51409;-75
2023/09/07 01:11:27;;;;;;;6.70;5.35;;;;;;;24.62;53.06;101744.25;2241267;79;51462;-75
2023/09/07 01:14:29;;;;;;;6.47;5.10;;;;;;;24.62;53.10;101748.31;2216450;79;51484;-74
2023/09/07 01:17:32;;;;;;;5.85;4.90;;;;;;;24.61;53.09;101744.78;2195138;79;51443;-75
2023/09/07 01:20:34;;;;;;;5.80;5.20;;;;;;;24.61;53.01;101735.80;2241089;79;50089;-75
2023/09/07 01:23:37;;;;;;;7.85;5.50;;;;;;;24.61;53.06;101746.13;2238643;78;50167;-75
2023/09/07 01:26:39;;;;;;;6.95;5.45;;;;;;;24.61;53.04;101743.91;2257741;78;51553;-74
2023/09/07 01:29:41;;;;;;;8.45;4.70;;;;;;;24.61;53.02;101742.56;2276342;77;51488;-74
2023/09/07 01:32:43;;;;;;;6.47;5.40;;;;;;;24.61;53.05;101742.56;2281591;77;51576;-74
2023/09/07 01:35:46;;;;;;;6.50;5.20;;;;;;;24.61;53.02;101743.91;2251572;78;50393;-74
2023/09/07 01:38:48;;;;;;;8.45;5.50;;;;;;;24.60;53.00;101744.96;2281578;78;51595;-74
2023/09/07 01:41:50;;;;;;;6.45;4.90;;;;;;;24.60;52.98;101740.91;2227047;78;51466;-74
2023/09/07 01:44:53;;;;;;;7.47;5.45;;;;;;;24.59;52.96;101741.95;2276122;77;49620;-74
2023/09/07 01:47:55;;;;;;;7.03;5.53;;;;;;;24.58;52.92;101741.61;2251430;78;51503;-74
2023/09/07 01:50:57;;;;;;;5.45;4.95;;;;;;;24.58;52.86;101736.20;2227262;78;51490;-75
2023/09/07 01:53:59;;;;;;;8.40;5.53;;;;;;;24.57;52.90;101744.84;2238598;78;51039;-75
2023/09/07 01:57:02;;;;;;;6.35;5.17;;;;;;;24.58;52.86;101741.61;2232752;78;50104;-74
2023/09/07 02:00:05;;;;;;;6.90;5.08;;;;;;;24.55;52.84;101747.73;2239751;78;51560;-76
2023/09/07 02:03:07;;;;;;;7.78;5.10;;;;;;;24.54;52.83;101737.95;2264406;78;50486;-75
2023/09/07 02:06:10;;;;;;;6.95;4.95;;;;;;;24.57;52.83;101752.95;2260456;78;51424;-75
2023/09/07 02:09:12;;;;;;;7.42;5.10;;;;;;;24.57;52.80;101749.42;2191857;78;50136;-74
2023/09/07 02:12:14;;;;;;;7.22;5.20;;;;;;;24.55;52.80;101747.73;2264406;78;51467;-75
2023/09/07 02:15:16;;;;;;;7.08;5.08;;;;;;;24.55;52.80;101739.61;2239714;78;53949;-75
2023/09/07 02:18:19;;;;;;;7.92;4.70;;;;;;;24.55;52.76;101740.12;2239350;78;52751;-74
2023/09/07 02:21:22;;;;;;;7.12;4.85;;;;;;;24.54;52.78;101743.36;2260333;78;50374;-74
2023/09/07 02:24:24;;;;;;;7.15;5.37;;;;;;;24.55;52.76;101742.84;2243436;78;50710;-75
2023/09/07 02:27:26;;;;;;;6.47;4.65;;;;;;;24.54;52.75;101739.83;2274451;78;51564;-76
2023/09/07 02:30:28;;;;;;;6.80;5.22;;;;;;;24.53;52.73;101736.29;2250220;78;50711;-75
2023/09/07 02:33:30;;;;;;;5.85;5.05;;;;;;;24.53;52.72;101743.05;2275931;76;52655;-75
2023/09/07 02:36:35;;;;;;;5.58;5.08;;;;;;;24.53;52.72;101742.19;2227270;78;50692;-75
2023/09/07 02:39:37;;;;;;;8.05;4.80;;;;;;;24.53;52.72;101741.70;2250355;78;50495;-75
2023/09/07 02:42:39;;;;;;;5.53;4.60;;;;;;;24.52;52.69;101739.18;2203485;78;51161;-74
2023/09/07 02:45:41;;;;;;;5.30;4.80;;;;;;;24.52;52.67;101742.72;2227211;78;50705;-74
2023/09/07 02:48:44;;;;;;;6.55;4.80;;;;;;;24.52;52.69;101735.13;2250444;77;51449;-75
2023/09/07 02:51:46;;;;;;;5.92;4.80;;;;;;;24.52;52.67;101735.95;2227137;78;51379;-75
2023/09/07 02:54:48;;;;;;;5.65;5.15;;;;;;;24.52;52.66;101739.18;2236415;78;53898;-75
2023/09/07 02:57:50;;;;;;;8.15;5.08;;;;;;;24.51;52.62;101744.28;2184551;80;52498;-75
2023/09/07 03:00:52;;;;;;;7.75;5.05;;;;;;;24.52;52.63;101740.53;2203555;80;51455;-75
2023/09/07 03:03:55;;;;;;;6.33;5.28;;;;;;;24.50;52.61;101743.42;2203437;79;49959;-75
2023/09/07 03:06:57;;;;;;;7.60;4.97;;;;;;;24.50;52.59;101742.06;2179002;80;51219;-75
2023/09/07 03:09:59;;;;;;;5.90;5.17;;;;;;;24.51;52.56;101742.41;2217582;78;50687;-74
2023/09/07 03:13:01;;;;;;;7.28;4.80;;;;;;;24.49;52.50;101749.88;2275951;78;50628;-74
2023/09/07 03:16:04;;;;;;;6.97;5.00;;;;;;;24.50;52.52;101747.48;2254450;78;51436;-75
2023/09/07 03:19:06;;;;;;;5.55;4.58;;;;;;;24.50;52.48;101750.70;2274483;77;50206;-74
2023/09/07 03:22:08;;;;;;;6.15;5.15;;;;;;;24.49;52.46;101744.47;2229611;78;51146;-75
2023/09/07 03:25:11;;;;;;;6.45;5.30;;;;;;;24.50;52.45;101743.42;2274288;77;51556;-75
2023/09/07 03:28:13;;;;;;;5.37;4.83;;;;;;;24.49;52.40;101747.17;2254223;78;51552;-75
2023/09/07 03:31:15;;;;;;;6.03;5.25;;;;;;;24.48;52.39;101745.51;2280975;77;51011;-75
2023/09/07 03:34:17;;;;;;;6.92;5.17;;;;;;;24.48;52.39;101746.86;2255586;78;51544;-75
2023/09/07 03:37:19;;;;;;;7.10;4.83;;;;;;;24.48;52.37;101752.27;2274476;77;50360;-75
2023/09/07 03:40:22;;;;;;;6.00;5.10;;;;;;;24.48;52.32;101750.92;2247824;78;50284;-73
2023/09/07 03:43:24;;;;;;;6.22;5.10;;;;;;;24.47;52.34;101749.23;2257345;78;50633;-73
2023/09/07 03:46:27;;;;;;;5.67;4.78;;;;;;;24.46;52.23;101740.80;2214845;78;51547;-74
2023/09/07 03:49:29;;;;;;;5.20;4.40;;;;;;;24.46;52.25;101747.57;2239813;78;51555;-75
2023/09/07 03:52:32;;;;;;;6.55;4.95;;;;;;;24.45;52.26;101747.23;2260166;78;50218;-75
2023/09/07 03:55:42;;;;;;;5.67;4.90;;;;;;;24.46;52.29;101750.80;2215311;78;51504;-75
2023/09/07 03:58:44;;;;;;;7.78;5.10;;;;;;;24.46;52.21;101750.27;2260448;78;51559;-74
2023/09/07 04:01:46;;;;;;;7.22;4.97;;;;;;;24.44;52.19;101755.01;2215181;78;50026;-74
2023/09/07 04:04:55;;;;;;;7.17;5.00;;;;;;;24.45;52.17;101752.64;2216057;78;49774;-75
2023/09/07 04:07:57;;;;;;;6.65;5.50;;;;;;;24.44;52.14;101759.06;2242812;78;51784;-74
2023/09/07 04:11:01;;;;;;;5.83;4.95;;;;;;;24.43;52.13;101752.48;2261939;78;51451;-75
2023/09/07 04:14:03;;;;;;;7.25;5.30;;;;;;;24.43;52.10;101751.13;2219370;78;52733;-74
2023/09/07 04:17:06;;;;;;;7.58;5.40;;;;;;;24.41;52.10;101747.28;2209731;78;50319;-74
2023/09/07 04:20:09;;;;;;;6.90;5.42;;;;;;;24.42;52.04;101749.47;2260779;78;51661;-74
2023/09/07 04:23:11;;;;;;;8.83;5.85;;;;;;;24.42;52.01;101758.41;2219201;78;50308;-75
2023/09/07 04:26:13;;;;;;;7.45;5.28;;;;;;;24.41;51.96;101764.88;2216161;78;50374;-74
2023/09/07 04:29:15;;;;;;;9.78;5.30;;;;;;;24.42;51.97;101763.83;2216236;78;51677;-75
2023/09/07 04:32:17;;;;;;;6.33;5.25;;;;;;;24.41;51.96;101766.22;2260611;78;51309;-75
2023/09/07 04:35:20;;;;;;;6.95;5.30;;;;;;;24.41;51.96;101774.86;2240264;78;50755;-75
2023/09/07 04:38:22;;;;;;;8.20;5.28;;;;;;;24.40;51.92;101774.00;2192576;78;51034;-75
2023/09/07 04:41:24;;;;;;;8.30;5.62;;;;;;;24.40;51.92;101768.59;2240250;78;49979;-75
2023/09/07 04:44:28;;;;;;;6.15;5.42;;;;;;;24.40;51.88;101771.30;2256613;78;50424;-75
2023/09/07 04:47:30;;;;;;;7.53;5.42;;;;;;;24.39;51.91;101773.69;2218283;79;50698;-75
2023/09/07 04:50:32;;;;;;;6.47;5.20;;;;;;;24.39;51.79;101777.75;2192549;79;51433;-75
2023/09/07 04:53:35;;;;;;;6.20;5.60;;;;;;;24.39;51.73;101776.39;2192211;79;52327;-75
2023/09/07 04:56:37;;;;;;;6.58;5.60;;;;;;;24.40;51.71;101776.70;2216202;79;51588;-75
2023/09/07 04:59:40;;;;;;;6.33;5.12;;;;;;;24.38;51.72;101773.38;2214897;78;51512;-75
2023/09/07 05:02:43;;;;;;;8.65;5.67;;;;;;;24.38;51.81;101781.50;2214512;79;51554;-75
2023/09/07 05:05:45;;;;;;;7.30;5.15;;;;;;;24.40;51.73;101778.58;2214853;79;50659;-75
2023/09/07 05:08:47;;;;;;;5.25;4.72;;;;;;;24.42;51.91;101771.94;2214744;79;50632;-75
2023/09/07 05:11:49;;;;;;;22.30;5.97;;;;;;;24.40;51.87;101780.77;2214916;79;51490;-76
2023/09/07 05:14:51;;;;;;;9.50;5.15;;;;;;;24.39;52.74;101774.21;2230702;78;51502;-76
2023/09/07 05:17:54;;;;;;;12.70;5.80;;;;;;;24.40;52.07;101781.28;2250675;78;50150;-76
2023/09/07 05:20:57;;;;;;;11.18;5.72;;;;;;;24.39;51.74;101781.80;2195407;79;50720;-77
2023/09/07 05:23:59;;;;;;;11.18;7.00;;;;;;;24.32;51.05;101782.25;2217525;79;50391;-77
2023/09/07 05:27:03;;;;;;;12.88;6.95;;;;;;;24.29;51.01;101785.35;2241566;79;50616;-78
2023/09/07 05:30:06;;;;;;;11.70;7.22;;;;;;;24.30;50.88;101778.90;2196231;79;51585;-79
2023/09/07 05:33:10;;;;;;;9.40;6.65;;;;;;;24.32;50.49;101786.31;2218258;79;50688;-78
2023/09/07 05:36:12;;;;;;;10.48;6.50;;;;;;;24.33;50.67;101785.30;2195257;79;50773;-77
2023/09/07 05:39:14;;;;;;;22.77;7.55;;;;;;;24.40;50.59;101780.77;2232957;78;51547;-78
2023/09/07 05:42:17;;;;;;;11.57;7.20;;;;;;;24.42;50.33;101786.83;2202907;80;52314;-78
2023/09/07 05:45:19;;;;;;;15.80;7.05;;;;;;;24.49;50.45;101794.52;2211989;79;52331;-79
2023/09/07 05:48:21;;;;;;;12.80;6.62;;;;;;;24.52;50.61;101792.77;2248794;78;51523;-78
2023/09/07 05:51:23;;;;;;;10.23;6.60;;;;;;;24.56;50.55;101798.65;2214547;78;52318;-76
2023/09/07 05:54:26;;;;;;;8.08;5.83;;;;;;;24.61;50.57;101800.74;2260501;78;50306;-78
2023/09/07 05:57:28;;;;;;;11.10;5.87;;;;;;;24.66;50.62;101799.16;2215279;78;52212;-77
2023/09/07 06:00:30;;;;;;;8.13;5.62;;;;;;;24.72;50.62;101796.17;2265043;78;51479;-78
2023/09/07 06:03:32;;;;;;;10.60;5.92;;;;;;;24.81;50.58;101797.68;2265144;78;50653;-75
2023/09/07 06:06:34;;;;;;;10.90;5.87;;;;;;;24.88;50.45;101793.68;2239571;78;52214;-75
2023/09/07 06:09:37;;;;;;;14.15;5.72;;;;;;;24.92;50.41;101798.52;2239426;78;51573;-75
2023/09/07 06:12:39;;;;;;;13.13;5.75;;;;;;;24.97;50.42;101804.66;2239424;78;51587;-75
2023/09/07 06:15:41;;;;;;;9.73;5.37;;;;;;;25.03;50.37;101794.94;2270202;77;50472;-75
2023/09/07 06:18:43;;;;;;;10.55;5.33;;;;;;;25.05;50.42;101803.67;2280978;78;50365;-75
2023/09/07 06:21:45;;;;;;;10.63;5.55;;;;;;;25.09;50.43;101807.14;2281786;78;50620;-74
2023/09/07 06:24:48;;;;;;;12.82;5.90;;;;;;;25.12;50.42;101810.80;2249598;78;51373;-74
2023/09/07 06:27:50;;;;;;;11.75;5.37;;;;;;;25.16;50.45;101815.36;2251548;78;51496;-74
2023/09/07 06:30:52;;;;;;;8.68;5.42;;;;;;;25.16;50.42;101812.65;2225738;78;52361;-74
2023/09/07 06:33:54;;;;;;;9.95;5.55;;;;;;;25.18;50.46;101814.65;2227093;78;51390;-74
2023/09/07 06:36:56;;;;;;;10.85;5.30;;;;;;;25.23;50.41;101816.73;2227050;78;51414;-74
2023/09/07 06:39:59;;;;;;;14.60;5.50;;;;;;;25.27;50.39;101820.73;2250155;78;50342;-74
2023/09/07 06:43:05;;;;;;;15.40;5.10;;;;;;;25.26;50.41;101810.42;2251313;78;50619;-75
2023/09/07 06:46:09;;;;;;;11.60;5.37;;;;;;;25.31;50.31;101813.37;2240324;78;22837;-74
2023/09/07 06:49:11;;;;;;;8.73;5.20;;;;;;;25.35;50.27;101814.62;2260418;78;50282;-76
2023/09/07 06:52:15;;;;;;;10.18;5.70;;;;;;;25.36;50.28;101810.89;2264327;78;51523;-75
2023/09/07 06:55:17;;;;;;;7.92;5.20;;;;;;;25.39;50.22;101815.91;2239751;78;51122;-77
2023/09/07 06:58:19;;;;;;;9.08;5.28;;;;;;;25.42;50.22;101815.50;2215438;78;50623;-77
2023/09/07 07:01:21;;;;;;;11.08;5.78;;;;;;;25.46;50.17;101815.09;2260830;78;50639;-77
2023/09/07 07:04:24;;;;;;;10.23;5.20;;;;;;;25.47;50.19;101815.43;2239856;78;51046;-77
2023/09/07 07:07:26;;;;;;;9.28;4.80;;;;;;;25.48;50.20;101819.80;2240566;78;51515;-78
2023/09/07 07:10:28;;;;;;;11.22;4.70;;;;;;;25.50;50.16;101820.44;2240541;78;50634;-78
2023/09/07 07:13:30;;;;;;;18.07;5.47;;;;;;;25.51;50.15;101822.97;2215266;78;51404;-77
2023/09/07 07:16:33;;;;;;;11.70;5.17;;;;;;;25.51;50.12;101820.75;2261828;78;50614;-77
2023/09/07 07:19:35;;;;;;;11.53;5.17;;;;;;;25.51;50.12;101824.32;2226756;78;50064;-77
2023/09/07 07:22:37;;;;;;;8.93;5.03;;;;;;;25.52;50.08;101815.66;2250504;78;51487;-77
2023/09/07 07:25:39;;;;;;;9.53;4.67;;;;;;;25.53;50.12;101826.28;2250860;78;50631;-78
2023/09/07 07:28:41;;;;;;;10.30;4.83;;;;;;;25.54;50.08;101823.08;2226727;78;50076;-77
2023/09/07 07:31:44;;;;;;;9.70;5.03;;;;;;;25.58;50.01;101827.05;2282511;78;50748;-77
2023/09/07 07:34:46;;;;;;;8.63;4.85;;;;;;;25.57;50.01;101827.56;2227627;78;50341;-78
2023/09/07 07:37:50;;;;;;;8.53;4.97;;;;;;;25.58;50.04;101830.58;2204411;78;49616;-76
2023/09/07 07:40:53;;;;;;;9.27;5.57;;;;;;;25.58;50.03;101839.23;2283057;78;50786;-78
2023/09/07 07:43:55;;;;;;;8.93;4.95;;;;;;;25.58;49.99;101830.58;2250969;77;52989;-78
2023/09/07 07:46:57;;;;;;;7.28;4.75;;;;;;;25.59;50.02;101834.16;2233703;78;49975;-78
2023/09/07 07:49:59;;;;;;;11.40;5.03;;;;;;;25.57;50.03;101834.34;2265456;78;51400;-78
2023/09/07 07:53:02;;;;;;;8.40;4.65;;;;;;;25.58;50.00;101829.75;2240113;78;49723;-78
2023/09/07 07:56:04;;;;;;;6.92;4.40;;;;;;;25.59;50.01;101830.09;2260965;78;51585;-78
2023/09/07 07:59:06;;;;;;;7.35;4.10;;;;;;;25.58;49.98;101829.23;2215608;78;51274;-78
2023/09/07 08:02:09;;;;;;;7.33;4.33;;;;;;;25.59;49.97;101833.63;2264947;78;51449;-76
2023/09/07 08:05:11;;;;;;;8.20;4.83;;;;;;;25.57;50.05;101830.28;2240162;78;51629;-78
2023/09/07 08:08:13;;;;;;;9.18;4.92;;;;;;;25.58;50.04;101828.39;2215394;78;50750;-78
2023/09/07 08:11:16;;;;;;;8.58;4.65;;;;;;;25.58;50.00;101828.39;2260767;78;51584;-78
2023/09/07 08:14:18;;;;;;;6.00;4.65;;;;;;;25.56;50.09;101834.04;2260218;78;50400;-78
2023/09/07 08:17:21;;;;;;;6.97;5.00;;;;;;;25.55;50.10;101835.05;2247875;78;50731;-80
2023/09/07 08:20:23;;;;;;;7.03;4.72;;;;;;;25.55;50.15;101831.52;2256537;78;51660;-79
2023/09/07 08:23:25;;;;;;;6.03;4.40;;;;;;;25.55;50.15;101831.52;2254756;78;51646;-78
2023/09/07 08:26:27;;;;;;;7.33;5.10;;;;;;;25.55;50.18;101831.52;2256495;78;52100;-79
2023/09/07 08:29:32;;;;;;;7.08;4.87;;;;;;;25.54;50.21;101831.21;2256379;78;50693;-79
2023/09/07 08:32:34;;;;;;;10.35;4.90;;;;;;;25.53;50.23;101836.30;2275520;77;23602;-77
2023/09/07 08:35:43;;;;;;;6.80;4.58;;;;;;;25.51;50.28;101834.30;2248856;78;50646;-76
2023/09/07 08:38:40;;;;;;;9.55;4.62;;;;;;;25.50;50.18;101827.22;2241998;77;21935;-77
2023/09/07 08:41:47;;;;;;;10.48;5.20;;;;;;;25.49;49.99;101833.69;2188040;78;51927;-78
2023/09/07 08:44:47;;;;;;;5.70;4.55;;;;;;;25.47;49.84;101828.98;2205416;78;22227;-78
2023/09/07 08:47:49;;;;;;;9.15;5.20;;;;;;;25.46;49.66;101830.86;2268067;78;50353;-79
2023/09/07 08:50:52;;;;;;;9.83;5.45;;;;;;;25.44;49.57;101832.09;2271471;77;50626;-79
2023/09/07 08:53:56;;;;;;;8.35;5.10;;;;;;;25.41;49.45;101820.61;2248127;78;50867;-79
2023/09/07 08:56:58;;;;;;;7.70;5.60;;;;;;;25.40;49.30;101825.70;2263931;77;50091;-78
2023/09/07 09:00:08;;;;;;;7.70;5.58;;;;;;;25.38;49.20;101827.80;2253731;78;51557;-77
2023/09/07 09:03:05;;;;;;;8.40;5.55;;;;;;;25.38;49.07;101829.15;2226722;78;23109;-77
2023/09/07 09:06:07;;;;;;;10.15;5.47;;;;;;;25.32;49.08;101823.68;2231678;78;50043;-77
2023/09/07 09:09:12;;;;;;;7.80;5.03;;;;;;;25.36;48.94;101824.44;2254422;78;50291;-77
2023/09/07 09:12:13;;;;;;;8.00;5.47;;;;;;;25.34;48.94;101826.51;2226476;78;22035;-76
2023/09/07 09:15:15;;;;;;;9.05;5.67;;;;;;;25.34;48.94;101827.86;2204168;78;49993;-78
2023/09/07 09:18:18;;;;;;;8.10;5.40;;;;;;;25.32;48.88;101819.09;2261020;78;50624;-77
2023/09/07 09:21:24;;;;;;;7.85;5.70;;;;;;;25.30;48.85;101822.52;2199399;78;51204;-77
2023/09/07 09:24:26;;;;;;;7.47;5.40;;;;;;;25.29;48.77;101820.85;2195061;78;50751;-78
2023/09/07 09:27:29;;;;;;;9.45;5.70;;;;;;;25.30;48.77;101825.75;2270074;78;50340;-78
2023/09/07 09:30:31;;;;;;;7.50;5.28;;;;;;;25.28;48.77;101812.42;2213262;78;51894;-76
2023/09/07 09:33:36;;;;;;;6.90;5.78;;;;;;;25.27;48.86;101818.02;2229870;78;51320;-77
2023/09/07 09:36:40;;;;;;;8.05;5.80;;;;;;;25.28;48.89;101815.12;2227740;78;50525;-78
2023/09/07 09:39:42;;;;;;;8.10;5.70;;;;;;;25.28;48.84;101813.77;2224971;78;22825;-78
2023/09/07 09:42:45;;;;;;;6.75;4.87;;;;;;;25.28;48.77;101808.36;2245977;78;51456;-78
2023/09/07 09:45:47;;;;;;;8.48;6.00;;;;;;;25.23;48.75;101800.48;2232209;78;49473;-78
2023/09/07 09:48:49;;;;;;;7.28;5.90;;;;;;;25.25;48.73;101798.42;2260213;78;50240;-78
2023/09/07 09:51:51;;;;;;;11.12;5.28;;;;;;;25.24;48.71;101797.59;2254559;78;50197;-80
2023/09/07 09:54:53;;;;;;;10.03;5.95;;;;;;;25.22;48.87;101794.23;2261794;78;51466;-78
2023/09/07 09:57:57;;;;;;;6.97;5.45;;;;;;;25.19;48.83;101793.28;2268312;78;51562;-78
2023/09/07 10:00:59;;;;;;;7.58;5.85;;;;;;;25.21;48.83;101789.87;2226190;79;51269;-78
2023/09/07 10:04:01;;;;;;;10.32;5.67;;;;;;;25.20;48.85;101802.58;2248752;78;50249;-77
2023/09/07 10:07:05;;;;;;;9.53;5.55;;;;;;;25.19;48.89;101796.83;2274967;77;50719;-77
2023/09/07 10:10:15;;;;;;;8.13;5.22;;;;;;;25.17;48.96;101796.70;2196276;78;52581;-78
2023/09/07 10:13:18;;;;;;;9.00;5.55;;;;;;;25.17;48.95;101786.70;2254877;78;51763;-78
2023/09/07 10:16:20;;;;;;;10.40;5.53;;;;;;;25.18;49.18;101781.63;2262088;78;50937;-77
2023/09/07 10:19:26;;;;;;;9.65;5.50;;;;;;;25.17;49.98;101777.22;2238647;78;50988;-77
2023/09/07 10:22:30;;;;;;;7.60;5.55;;;;;;;25.20;49.53;101780.05;2247125;78;50352;-77
2023/09/07 10:25:32;;;;;;;6.83;5.10;;;;;;;25.16;49.41;101780.15;2216453;79;50321;-78
2023/09/07 10:28:34;;;;;;;9.68;5.70;;;;;;;25.16;49.42;101781.50;2192113;79;50667;-79
2023/09/07 10:31:38;;;;;;;10.08;5.72;;;;;;;25.14;49.44;101777.59;2238774;79;51555;-78
2023/09/07 10:34:44;;;;;;;9.65;5.35;;;;;;;25.13;49.47;101774.58;2215653;79;49676;-78
2023/09/07 10:37:49;;;;;;;8.08;5.30;;;;;;;25.14;49.53;101778.12;2238940;79;50660;-79
2023/09/07 10:41:00;;;;;;;6.67;5.25;;;;;;;25.15;49.57;101783.84;2239103;79;51679;-79
2023/09/07 10:44:00;;;;;;;7.70;5.30;;;;;;;25.15;49.61;101777.07;2239295;78;22325;-78
2023/09/07 10:47:02;;;;;;;8.45;5.70;;;;;;;25.15;49.60;101774.36;2210308;78;51154;-77
2023/09/07 10:50:05;;;;;;;7.47;5.50;;;;;;;25.15;49.58;101778.42;2222877;78;50368;-78
2023/09/07 10:53:07;;;;;;;6.90;5.40;;;;;;;25.15;49.63;101769.80;2267494;78;51723;-78
2023/09/07 10:56:09;;;;;;;5.53;5.00;;;;;;;25.16;49.63;101774.20;2245651;78;51484;-78
2023/09/07 10:59:11;;;;;;;6.70;5.55;;;;;;;25.14;49.63;101769.47;2222851;78;50734;-79
2023/09/07 11:02:15;;;;;;;7.05;5.25;;;;;;;25.14;49.71;101775.41;2267301;78;51455;-77
2023/09/07 11:05:18;;;;;;;9.20;5.05;;;;;;;25.14;49.72;101772.17;2267765;78;50666;-78
2023/09/07 11:08:20;;;;;;;7.37;5.10;;;;;;;25.15;49.70;101770.30;2271872;78;49640;-78
2023/09/07 11:11:23;;;;;;;7.80;5.58;;;;;;;25.14;49.67;101769.99;2267684;78;50455;-78
2023/09/07 11:14:28;;;;;;;9.43;4.97;;;;;;;25.14;49.73;101769.99;2225431;77;50667;-78
2023/09/07 11:17:30;;;;;;;6.28;5.22;;;;;;;25.15;49.73;101766.23;2274973;77;51936;-78
2023/09/07 11:20:33;;;;;;;6.45;5.30;;;;;;;25.13;49.80;101757.50;2282296;76;50616;-78
2023/09/07 11:23:37;;;;;;;6.42;5.45;;;;;;;25.15;49.74;101758.11;2276482;77;52565;-78
2023/09/07 11:26:45;;;;;;;9.18;5.72;;;;;;;25.12;49.82;101755.81;2252848;78;22333;-78
2023/09/07 11:29:53;;;;;;;7.50;5.45;;;;;;;25.12;49.81;101753.93;2282341;77;50638;-78
2023/09/07 11:33:04;;;;;;;7.72;4.85;;;;;;;25.12;49.81;101753.10;2226529;78;50216;-79
2023/09/07 11:36:06;;;;;;;7.62;5.00;;;;;;;25.13;49.79;101745.31;2282451;78;50702;-78
2023/09/07 11:39:14;;;;;;;6.03;5.05;;;;;;;25.11;49.84;101750.91;2250591;78;50387;-79
2023/09/07 11:42:17;;;;;;;8.30;5.20;;;;;;;25.13;49.85;101743.44;2253507;78;52006;-76
2023/09/07 11:45:19;;;;;;;6.40;5.00;;;;;;;25.12;49.92;101747.16;2278555;77;50717;-78
2023/09/07 11:48:21;;;;;;;7.95;5.42;;;;;;;25.12;49.92;101744.98;2241897;78;51291;-78
2023/09/07 11:51:24;;;;;;;5.53;4.50;;;;;;;25.10;49.95;101747.91;2222315;79;51536;-79
2023/09/07 11:54:27;;;;;;;6.60;5.50;;;;;;;25.12;49.88;101746.33;2222478;79;50669;-78
2023/09/07 11:57:29;;;;;;;8.18;5.15;;;;;;;25.14;49.81;101745.62;2222659;79;50037;-79
2023/09/07 12:00:31;;;;;;;6.53;4.70;;;;;;;25.12;49.79;101742.27;2244507;78;50612;-78
2023/09/07 12:03:34;;;;;;;6.72;5.03;;;;;;;25.13;49.82;101738.55;2244190;79;50587;-78
2023/09/07 12:06:36;;;;;;;6.03;4.50;;;;;;;25.11;49.74;101742.80;2244280;78;50281;-78
2023/09/07 12:09:38;;;;;;;8.75;5.20;;;;;;;25.10;49.64;101736.20;2244396;79;51628;-78
2023/09/07 12:12:41;;;;;;;6.20;5.08;;;;;;;25.11;49.59;101739.25;2198394;79;52377;-78
2023/09/07 12:15:43;;;;;;;6.40;4.80;;;;;;;25.12;49.48;101740.91;2261916;77;51394;-79
2023/09/07 12:18:45;;;;;;;6.22;5.15;;;;;;;25.11;49.33;101733.31;2265471;78;50691;-78
2023/09/07 12:21:47;;;;;;;6.95;5.30;;;;;;;25.11;49.22;101733.84;2240366;78;51716;-79
2023/09/07 12:24:50;;;;;;;6.05;5.20;;;;;;;25.10;49.18;101733.01;2265428;78;50688;-79
2023/09/07 12:27:52;;;;;;;8.33;5.62;;;;;;;25.12;48.87;101734.97;2261400;78;50672;-77
2023/09/07 12:30:55;;;;;;;6.47;5.20;;;;;;;25.12;48.74;101739.56;2215776;78;50399;-78
2023/09/07 12:33:57;;;;;;;6.72;5.12;;;;;;;25.14;48.57;101741.55;2215779;78;50713;-77
2023/09/07 12:36:59;;;;;;;6.65;5.37;;;;;;;25.14;48.15;101738.84;2240937;78;52481;-76
2023/09/07 12:40:03;;;;;;;7.65;5.60;;;;;;;25.17;47.76;101739.30;2192570;78;52336;-76
2023/09/07 12:43:06;;;;;;;6.13;5.30;;;;;;;25.15;47.67;101735.09;2240310;78;51579;-77
2023/09/07 12:46:08;;;;;;;5.75;5.00;;;;;;;25.17;47.47;101728.47;2216260;78;51506;-78
2023/09/07 12:49:10;;;;;;;7.00;5.25;;;;;;;25.14;47.38;101726.13;2265153;78;51567;-78
2023/09/07 12:52:12;;;;;;;6.03;4.78;;;;;;;25.15;47.23;101729.67;2260526;78;51453;-77
2023/09/07 12:55:15;;;;;;;6.60;5.08;;;;;;;25.13;47.29;101722.29;2215620;78;51055;-77
2023/09/07 12:58:17;;;;;;;7.00;4.87;;;;;;;25.12;47.07;101720.59;2216140;78;50687;-78
2023/09/07 13:01:20;;;;;;;7.45;5.45;;;;;;;25.13;46.92;101721.77;2265223;78;51445;-78
2023/09/07 13:04:22;;;;;;;7.40;4.78;;;;;;;25.12;46.95;101719.25;2192694;78;52539;-78
2023/09/07 13:07:24;;;;;;;6.50;5.40;;;;;;;25.13;47.00;101714.16;2215908;78;51472;-78
2023/09/07 13:10:27;;;;;;;7.53;5.62;;;;;;;25.15;46.80;101710.71;2260963;78;50625;-77
2023/09/07 13:13:29;;;;;;;6.08;5.00;;;;;;;25.15;46.60;101714.78;2215671;78;50651;-77
2023/09/07 13:16:32;;;;;;;7.62;5.10;;;;;;;25.15;46.53;101702.59;2247180;78;49983;-77
2023/09/07 13:19:34;;;;;;;7.97;4.83;;;;;;;25.16;46.41;101703.78;2193063;78;51012;-78
2023/09/07 13:22:37;;;;;;;6.22;4.87;;;;;;;25.18;46.23;101706.30;2240275;78;50683;-77
2023/09/07 13:25:39;;;;;;;5.87;5.10;;;;;;;25.18;46.26;101699.53;2240634;78;50245;-79
2023/09/07 13:28:41;;;;;;;6.35;5.10;;;;;;;25.19;46.04;101697.95;2261049;78;50717;-77
2023/09/07 13:31:43;;;;;;;6.40;4.90;;;;;;;25.19;45.98;101699.31;2240326;78;51535;-78
2023/09/07 13:34:45;;;;;;;5.50;4.72;;;;;;;25.20;45.87;101690.17;2214837;78;52453;-77
2023/09/07 13:37:47;;;;;;;5.90;4.87;;;;;;;25.20;45.78;101691.52;2262632;78;51512;-77
2023/09/07 13:40:50;;;;;;;6.17;4.83;;;;;;;25.22;45.70;101693.18;2244414;78;50864;-77
2023/09/07 13:43:53;;;;;;;6.33;5.00;;;;;;;25.23;45.62;101687.58;2240335;78;51059;-77
2023/09/07 13:46:55;;;;;;;6.90;4.90;;;;;;;25.23;45.62;101680.80;2250266;78;52375;-78
2023/09/07 13:49:58;;;;;;;7.50;4.70;;;;;;;25.24;45.62;101677.56;2241815;79;51526;-78
2023/09/07 13:53:00;;;;;;;5.90;4.92;;;;;;;25.24;45.55;101677.05;2193903;79;51192;-77
2023/09/07 13:56:02;;;;;;;7.67;4.80;;;;;;;25.25;45.52;101671.09;2195056;79;51867;-77
2023/09/07 13:59:04;;;;;;;6.72;5.20;;;;;;;25.26;45.47;101667.37;2218952;79;50062;-77
2023/09/07 14:02:07;;;;;;;6.58;5.40;;;;;;;25.26;45.38;101666.84;2219182;79;50420;-76
2023/09/07 14:05:09;;;;;;;6.80;5.42;;;;;;;25.27;45.29;101665.80;2241651;79;50091;-79
2023/09/07 14:08:11;;;;;;;5.95;5.15;;;;;;;25.27;45.26;101662.26;2219475;79;51549;-79
2023/09/07 14:11:13;;;;;;;7.17;5.12;;;;;;;25.28;45.21;101658.50;2218236;79;52129;-78